createdAt,value
2022-10-25T00:00:01.775Z,101163.81
2022-10-25T00:02:42.335Z,101162.19
2022-10-25T00:05:18.643Z,101174.56
2022-10-25T00:07:49.761Z,101176.81
2022-10-25T00:10:23.496Z,101185.78
2022-10-25T00:12:56.662Z,101183.63
2022-10-25T00:15:28.196Z,101179.25
2022-10-25T00:17:59.200Z,101183.63
2022-10-25T00:20:30.044Z,101188.38
2022-10-25T00:23:00.908Z,101183.47
2022-10-25T00:25:31.666Z,101189.81
2022-10-25T00:28:02.467Z,101189.16
2022-10-25T00:30:33.417Z,101195.81
2022-10-25T00:33:04.217Z,101195.81
2022-10-25T00:35:35.127Z,101199.09
2022-10-25T00:38:06.062Z,101200.22
2022-10-25T00:40:37.034Z,101201.03
2022-10-25T00:43:07.856Z,101197.78
2022-10-25T00:45:38.764Z,101201.66
2022-10-25T00:48:14.281Z,101201.84
2022-10-25T00:50:57.608Z,101211.59
2022-10-25T00:53:40.104Z,101207.50
2022-10-25T00:56:20.222Z,101222.63
2022-10-25T00:58:56.283Z,101220.38
2022-10-25T01:01:28.271Z,101225.59
2022-10-25T01:04:02.855Z,101224.59
2022-10-25T01:06:49.518Z,101222.31
2022-10-25T01:09:33.474Z,101226.41
2022-10-25T01:12:04.304Z,101227.84
2022-10-25T01:14:44.376Z,101229.47
2022-10-25T01:17:41.190Z,101238.59
2022-10-25T01:20:42.015Z,101236.63
2022-10-25T01:23:22.065Z,101238.88
2022-10-25T01:25:59.312Z,101239.59
2022-10-25T01:28:59.035Z,101232.13
2022-10-25T01:32:07.691Z,101249.22
2022-10-25T01:34:50.766Z,101249.50
2022-10-25T01:37:39.015Z,101252.25
2022-10-25T01:40:25.034Z,101250.34
2022-10-25T01:43:17.145Z,101250.00
2022-10-25T01:46:17.007Z,101249.72
2022-10-25T01:48:51.887Z,101253.78
2022-10-25T01:51:22.704Z,101246.94
2022-10-25T01:53:54.895Z,101250.53
2022-10-25T01:56:31.460Z,101245.81
2022-10-25T01:59:54.991Z,101252.66
2022-10-25T02:02:33.928Z,101251.03
2022-10-25T02:05:30.031Z,101255.44
2022-10-25T02:08:06.344Z,101263.38
2022-10-25T02:10:40.010Z,101266.16
2022-10-25T02:13:36.633Z,101259.19
2022-10-25T02:16:28.377Z,101261.97
2022-10-25T02:19:05.179Z,101269.94
2022-10-25T02:21:39.245Z,101264.72
2022-10-25T02:24:24.358Z,101272.44
2022-10-25T02:26:57.419Z,101260.00
2022-10-25T02:29:31.215Z,101266.38
2022-10-25T02:32:02.523Z,101254.19
2022-10-25T02:34:33.743Z,101261.06
2022-10-25T02:37:04.240Z,101262.97
2022-10-25T02:39:36.275Z,101255.84
2022-10-25T02:42:08.392Z,101255.19
2022-10-25T02:44:39.446Z,101243.34
2022-10-25T02:47:10.297Z,101251.94
2022-10-25T02:49:41.313Z,101239.97
2022-10-25T02:52:12.242Z,101250.50
2022-10-25T02:54:43.181Z,101250.38
2022-10-25T02:57:14.052Z,101247.59
2022-10-25T02:59:45.029Z,101248.75
2022-10-25T03:02:15.940Z,101247.91
2022-10-25T03:04:46.900Z,101244.53
2022-10-25T03:07:17.976Z,101244.84
2022-10-25T03:09:48.942Z,101245.34
2022-10-25T03:12:19.766Z,101253.13
2022-10-25T03:14:50.497Z,101250.06
2022-10-25T03:17:21.306Z,101243.09
2022-10-25T03:19:52.168Z,101244.72
2022-10-25T03:22:23.199Z,101236.44
2022-10-25T03:24:54.100Z,101244.09
2022-10-25T03:27:25.321Z,101234.78
2022-10-25T03:29:57.523Z,101238.38
2022-10-25T03:32:28.387Z,101239.06
2022-10-25T03:34:59.187Z,101224.41
2022-10-25T03:37:30.157Z,101220.84
2022-10-25T03:40:00.953Z,101224.13
2022-10-25T03:42:31.930Z,101219.72
2022-10-25T03:45:02.841Z,101215.81
2022-10-25T03:47:33.654Z,101213.06
2022-10-25T03:50:05.035Z,101209.47
2022-10-25T03:52:35.386Z,101206.59
2022-10-25T03:55:06.862Z,101211.28
2022-10-25T03:57:38.013Z,101202.69
2022-10-25T04:00:09.339Z,101193.88
2022-10-25T04:02:43.267Z,101199.59
2022-10-25T04:05:14.033Z,101196.81
2022-10-25T04:07:45.428Z,101186.91
2022-10-25T04:10:16.471Z,101190.00
2022-10-25T04:12:47.586Z,101177.47
2022-10-25T04:15:19.149Z,101179.94
2022-10-25T04:17:54.059Z,101175.84
2022-10-25T04:20:25.560Z,101169.50
2022-10-25T04:22:58.399Z,101175.03
2022-10-25T04:25:30.736Z,101167.03
2022-10-25T04:28:03.089Z,101172.56
2022-10-25T04:30:36.585Z,101157.63
2022-10-25T04:33:10.054Z,101167.88
2022-10-25T04:35:40.992Z,101159.59
2022-10-25T04:38:11.701Z,101152.59
2022-10-25T04:40:42.754Z,101147.41
2022-10-25T04:43:13.410Z,101139.91
2022-10-25T04:45:44.317Z,101137.34
2022-10-25T04:48:15.307Z,101133.25
2022-10-25T04:50:46.416Z,101123.81
2022-10-25T04:53:17.202Z,101125.47
2022-10-25T04:55:48.327Z,101118.78
2022-10-25T04:58:19.084Z,101111.97
2022-10-25T05:00:50.510Z,101116.53
2022-10-25T05:03:21.502Z,101105.81
2022-10-25T05:05:52.414Z,101101.88
2022-10-25T05:08:23.241Z,101101.56
2022-10-25T05:10:58.117Z,101095.53
2022-10-25T05:13:28.945Z,101088.38
2022-10-25T05:16:02.291Z,101082.06
2022-10-25T05:18:35.132Z,101071.47
2022-10-25T05:21:08.819Z,101071.16
2022-10-25T05:23:39.820Z,101067.09
2022-10-25T05:26:13.512Z,101054.75
2022-10-25T05:28:46.872Z,101047.09
2022-10-25T05:31:20.739Z,101051.19
2022-10-25T05:33:57.122Z,101049.72
2022-10-25T05:36:28.445Z,101052.47
2022-10-25T05:38:59.284Z,101035.25
2022-10-25T05:41:33.194Z,101043.22
2022-10-25T05:44:07.803Z,101032.00
2022-10-25T05:46:39.233Z,101032.00
2022-10-25T05:49:09.690Z,101032.00
2022-10-25T05:51:41.698Z,101023.34
2022-10-25T05:54:17.306Z,101020.09
2022-10-25T05:56:48.220Z,101016.53
2022-10-25T05:59:19.177Z,101026.13
2022-10-25T06:01:53.781Z,101014.75
2022-10-25T06:04:38.199Z,101011.50
2022-10-25T06:07:09.058Z,101009.41
2022-10-25T06:09:39.788Z,101006.13
2022-10-25T06:12:10.639Z,101007.75
2022-10-25T06:14:43.235Z,101000.59
2022-10-25T06:17:16.495Z,100998.16
2022-10-25T06:19:47.402Z,100985.97
2022-10-25T06:22:18.311Z,100978.00
2022-10-25T06:24:49.231Z,100978.47
2022-10-25T06:27:19.997Z,100972.16
2022-10-25T06:29:51.092Z,100968.25
2022-10-25T06:32:21.866Z,100969.06
2022-10-25T06:34:52.895Z,100966.28
2022-10-25T06:37:23.570Z,100953.94
2022-10-25T06:39:54.561Z,100957.19
2022-10-25T06:42:25.699Z,100955.72
2022-10-25T06:44:56.361Z,100950.19
2022-10-25T06:47:38.683Z,100946.94
2022-10-25T06:50:10.692Z,100948.22
2022-10-25T06:53:01.606Z,100944.16
2022-10-25T06:55:32.441Z,100942.69
2022-10-25T06:58:08.350Z,100922.53
2022-10-25T07:00:39.326Z,100916.38
2022-10-25T07:03:10.134Z,100921.25
2022-10-25T07:06:01.729Z,100914.25
2022-10-25T07:08:32.587Z,100920.28
2022-10-25T07:11:03.901Z,100914.25
2022-10-25T07:13:35.289Z,100905.13
2022-10-25T07:16:07.802Z,100905.13
2022-10-25T07:18:39.980Z,100908.88
2022-10-25T07:21:14.511Z,100904.81
2022-10-25T07:23:45.800Z,100909.22
2022-10-25T07:26:19.750Z,100900.56
2022-10-25T07:28:52.242Z,100893.75
2022-10-25T07:31:26.447Z,100897.31
2022-10-25T07:34:00.295Z,100887.09
2022-10-25T07:36:31.698Z,100891.47
2022-10-25T07:39:03.462Z,100891.47
2022-10-25T07:41:34.324Z,100881.72
2022-10-25T07:44:05.341Z,100882.84
2022-10-25T07:46:36.054Z,100878.16
2022-10-25T07:49:06.723Z,100879.44
2022-10-25T07:51:37.506Z,100878.34
2022-10-25T07:54:08.479Z,100873.91
2022-10-25T07:56:39.411Z,100879.78
2022-10-25T07:59:10.326Z,100874.72
2022-10-25T08:01:41.394Z,100873.91
2022-10-25T08:04:12.348Z,100873.75
2022-10-25T08:06:43.519Z,100867.09
2022-10-25T08:09:26.559Z,100863.19
2022-10-25T08:12:04.595Z,100865.94
2022-10-25T08:14:38.137Z,100861.41
2022-10-25T08:17:11.796Z,100865.94
2022-10-25T08:19:42.572Z,100851.78
2022-10-25T08:22:13.410Z,100852.13
2022-10-25T08:24:44.050Z,100848.19
2022-10-25T08:27:14.975Z,100843.66
2022-10-25T08:29:45.890Z,100845.94
2022-10-25T08:32:17.191Z,100837.66
2022-10-25T08:37:33.483Z,100836.50
2022-10-25T08:40:04.397Z,100845.28
2022-10-25T08:42:45.323Z,100841.72
2022-10-25T08:45:48.489Z,100846.78
2022-10-25T08:48:23.784Z,100833.75
2022-10-25T08:50:59.275Z,100836.50
2022-10-25T08:53:39.829Z,100832.75
2022-10-25T08:56:17.945Z,100833.56
2022-10-25T08:59:00.895Z,100830.97
2022-10-25T09:01:50.333Z,100833.75
2022-10-25T09:04:21.290Z,100822.69
2022-10-25T09:07:22.910Z,100818.28
2022-10-25T09:10:17.679Z,100818.28
2022-10-25T09:12:56.120Z,100814.72
2022-10-25T09:16:03.842Z,100822.38
2022-10-25T09:18:50.982Z,100819.59
2022-10-25T09:21:40.005Z,100818.28
2022-10-25T09:24:36.337Z,100823.16
2022-10-25T09:27:17.053Z,100817.97
2022-10-25T09:30:07.343Z,100818.78
2022-10-25T09:32:57.011Z,100815.53
2022-10-25T09:35:48.428Z,100813.25
2022-10-25T09:38:37.032Z,100822.19
2022-10-25T09:41:29.944Z,100823.31
2022-10-25T09:44:23.317Z,100817.50
2022-10-25T09:47:24.086Z,100811.13
2022-10-25T09:50:29.079Z,100830.78
2022-10-25T09:53:18.900Z,100823.03
2022-10-25T09:55:58.784Z,100830.50
2022-10-25T09:58:33.163Z,100828.56
2022-10-25T10:01:09.366Z,100834.22
2022-10-25T10:03:40.584Z,100837.00
2022-10-25T10:06:39.309Z,100834.88
2022-10-25T10:09:15.166Z,100844.81
2022-10-25T10:11:47.454Z,100840.91
2022-10-25T10:14:33.264Z,100844.00
2022-10-25T10:17:05.295Z,100847.91
2022-10-25T10:19:36.264Z,100861.75
2022-10-25T10:22:16.047Z,100871.47
2022-10-25T10:24:52.170Z,100870.66
2022-10-25T10:27:28.906Z,100873.41
2022-10-25T10:30:03.669Z,100873.41
2022-10-25T10:35:32.676Z,100878.59
2022-10-25T10:38:32.726Z,100879.78
2022-10-25T10:41:30.678Z,100881.38
2022-10-25T10:44:15.954Z,100888.75
2022-10-25T10:46:51.899Z,100897.03
2022-10-25T10:49:22.635Z,100899.47
2022-10-25T10:51:53.617Z,100906.25
2022-10-25T10:54:33.460Z,100902.38
2022-10-25T10:57:10.013Z,100903.22
2022-10-25T10:59:59.289Z,100911.19
2022-10-25T11:02:44.872Z,100910.69
2022-10-25T11:05:32.963Z,100920.09
2022-10-25T11:08:12.281Z,100911.78
2022-10-25T11:10:43.603Z,100922.56
2022-10-25T11:13:16.038Z,100921.25
2022-10-25T11:16:05.016Z,100919.81
2022-10-25T11:18:54.249Z,100928.59
2022-10-25T11:21:33.758Z,100932.34
2022-10-25T11:24:28.868Z,100928.25
2022-10-25T11:27:21.287Z,100934.28
2022-10-25T11:30:00.481Z,100930.53
2022-10-25T11:32:47.581Z,100937.69
2022-10-25T11:35:58.863Z,100934.94
2022-10-25T11:38:48.062Z,100939.78
2022-10-25T11:41:44.044Z,100951.22
2022-10-25T11:44:35.676Z,100939.03
2022-10-25T11:47:12.039Z,100950.38
2022-10-25T11:50:01.617Z,100950.38
2022-10-25T11:53:23.237Z,100947.13
2022-10-25T11:56:03.848Z,100961.78
2022-10-25T11:59:04.617Z,100964.22
2022-10-25T12:02:05.183Z,100957.88
2022-10-25T12:04:44.452Z,100964.72
2022-10-25T12:07:33.561Z,100961.94
2022-10-25T12:10:31.175Z,100963.41
2022-10-25T12:13:14.804Z,100964.22
2022-10-25T12:15:51.566Z,100978.53
2022-10-25T12:18:29.369Z,100976.91
2022-10-25T12:21:01.661Z,100966.00
2022-10-25T12:23:47.210Z,100969.59
2022-10-25T12:26:36.106Z,100977.25
2022-10-25T12:29:10.186Z,100980.31
2022-10-25T12:31:46.308Z,100994.13
2022-10-25T12:34:46.683Z,100997.75
2022-10-25T12:37:40.951Z,100990.56
2022-10-25T12:40:19.999Z,101010.72
2022-10-25T12:43:10.539Z,101011.34
2022-10-25T12:46:01.934Z,101011.34
2022-10-25T12:48:50.911Z,101022.94
2022-10-25T12:51:30.748Z,101016.06
2022-10-25T12:54:35.937Z,101025.69
2022-10-25T12:57:27.503Z,101027.94
2022-10-25T13:00:23.868Z,101039.53
2022-10-25T13:03:22.708Z,101039.84
2022-10-25T13:06:19.313Z,101034.63
2022-10-25T13:08:50.648Z,101045.34
2022-10-25T13:11:21.716Z,101046.50
2022-10-25T13:13:58.885Z,101054.00
2022-10-25T13:16:33.168Z,101058.09
2022-10-25T13:22:57.181Z,101060.97
2022-10-25T13:25:33.962Z,101062.19
2022-10-25T13:28:20.048Z,101063.16
2022-10-25T13:30:50.968Z,101079.09
2022-10-25T13:33:23.790Z,101080.09
2022-10-25T13:35:54.601Z,101080.25
2022-10-25T13:38:33.281Z,101084.63
2022-10-25T13:41:13.719Z,101084.47
2022-10-25T13:44:07.981Z,101084.47
2022-10-25T13:46:42.538Z,101090.19
2022-10-25T13:49:34.490Z,101094.56
2022-10-25T13:52:09.397Z,101102.53
2022-10-25T13:54:53.279Z,101095.13
2022-10-25T13:57:49.154Z,101101.81
2022-10-25T14:00:37.469Z,101112.38
2022-10-25T14:03:17.040Z,101107.44
2022-10-25T14:06:18.452Z,101108.78
2022-10-25T14:08:48.987Z,101106.97
2022-10-25T14:11:26.355Z,101105.03
2022-10-25T14:14:15.427Z,101106.97
2022-10-25T14:17:23.206Z,101099.50
2022-10-25T14:20:00.635Z,101101.94
2022-10-25T14:22:57.087Z,101105.03
2022-10-25T14:25:43.658Z,101105.03
2022-10-25T14:28:20.304Z,101101.16
2022-10-25T14:30:53.224Z,101107.31
2022-10-25T14:33:36.766Z,101118.72
2022-10-25T14:36:13.301Z,101116.44
2022-10-25T14:38:57.057Z,101113.66
2022-10-25T14:41:33.628Z,101118.09
2022-10-25T14:44:05.367Z,101117.16
2022-10-25T14:46:36.712Z,101115.19
2022-10-25T14:49:12.516Z,101116.81
2022-10-25T14:51:46.249Z,101113.41
2022-10-25T14:54:38.835Z,101109.16
2022-10-25T14:57:13.293Z,101115.19
2022-10-25T14:59:51.117Z,101123.34
2022-10-25T15:02:31.247Z,101121.78
2022-10-25T15:05:04.039Z,101111.50
2022-10-25T15:07:45.407Z,101112.13
2022-10-25T15:10:37.666Z,101110.34
2022-10-25T15:13:38.743Z,101098.78
2022-10-25T15:16:35.544Z,101101.25
2022-10-25T15:19:15.402Z,101112.63
2022-10-25T15:21:54.311Z,101105.13
2022-10-25T15:24:28.006Z,101104.97
2022-10-25T15:27:03.494Z,101105.44
2022-10-25T15:32:30.172Z,101100.91
2022-10-25T15:35:05.387Z,101106.75
2022-10-25T15:37:36.227Z,101101.88
2022-10-25T15:40:19.192Z,101092.94
2022-10-25T15:42:50.179Z,101101.72
2022-10-25T15:45:21.206Z,101093.84
2022-10-25T15:47:52.843Z,101100.00
2022-10-25T15:50:25.400Z,101090.59
2022-10-25T15:52:56.686Z,101096.13
2022-10-25T15:55:30.079Z,101097.25
2022-10-25T15:58:00.940Z,101099.69
2022-10-25T16:00:33.784Z,101100.50
2022-10-25T16:03:04.886Z,101096.59
2022-10-25T16:05:37.294Z,101093.50
2022-10-25T16:08:10.666Z,101103.78
2022-10-25T16:10:42.477Z,101093.50
2022-10-25T16:13:18.728Z,101096.81
2022-10-25T16:15:49.581Z,101100.38
2022-10-25T16:18:20.898Z,101097.59
2022-10-25T16:20:52.005Z,101096.28
2022-10-25T16:23:26.478Z,101092.72
2022-10-25T16:25:59.052Z,101103.78
2022-10-25T16:28:29.942Z,101098.25
2022-10-25T16:31:00.669Z,101092.72
2022-10-25T16:33:31.573Z,101097.06
2022-10-25T16:36:02.416Z,101091.06
2022-10-25T16:38:33.337Z,101097.75
2022-10-25T16:41:04.190Z,101092.72
2022-10-25T16:43:35.139Z,101087.47
2022-10-25T16:46:05.865Z,101091.88
2022-10-25T16:48:38.916Z,101084.91
2022-10-25T16:51:09.741Z,101088.31
2022-10-25T16:53:40.648Z,101090.25
2022-10-25T16:56:14.068Z,101093.50
2022-10-25T16:58:45.960Z,101087.81
2022-10-25T17:01:44.582Z,101091.06
2022-10-25T17:04:17.740Z,101088.63
2022-10-25T17:06:48.645Z,101088.63
2022-10-25T17:09:20.579Z,101091.38
2022-10-25T17:11:51.348Z,101096.13
2022-10-25T17:14:22.071Z,101094.47
2022-10-25T17:16:53.003Z,101095.13
2022-10-25T17:19:23.778Z,101090.09
2022-10-25T17:21:54.685Z,101096.75
2022-10-25T17:24:26.560Z,101103.91
2022-10-25T17:26:57.574Z,101098.69
2022-10-25T17:29:28.701Z,101093.47
2022-10-25T17:31:59.597Z,101096.25
2022-10-25T17:34:30.428Z,101086.00
2022-10-25T17:37:02.872Z,101081.28
2022-10-25T17:39:33.633Z,101089.91
2022-10-25T17:42:04.949Z,101087.94
2022-10-25T17:44:35.396Z,101087.94
2022-10-25T17:47:06.429Z,101091.84
2022-10-25T17:49:37.079Z,101089.41
2022-10-25T17:52:09.435Z,101092.97
2022-10-25T17:54:41.505Z,101095.25
2022-10-25T17:57:12.428Z,101101.28
2022-10-25T17:59:43.253Z,101091.19
2022-10-25T18:02:16.402Z,101089.72
2022-10-25T18:05:02.303Z,101091.19
2022-10-25T18:07:40.318Z,101088.09
2022-10-25T18:10:11.651Z,101089.22
2022-10-25T18:12:42.013Z,101081.25
2022-10-25T18:15:13.297Z,101077.38
2022-10-25T18:17:44.813Z,101083.22
2022-10-25T18:20:16.223Z,101082.09
2022-10-25T18:22:47.784Z,101086.00
2022-10-25T18:25:18.769Z,101073.28
2022-10-25T18:27:49.907Z,101077.38
2022-10-25T18:30:21.103Z,101070.19
2022-10-25T18:32:52.133Z,101066.13
2022-10-25T18:35:24.022Z,101062.25
2022-10-25T18:37:54.950Z,101060.59
2022-10-25T18:40:25.863Z,101062.25
2022-10-25T18:42:56.709Z,101065.13
2022-10-25T18:45:27.825Z,101064.00
2022-10-25T18:47:58.475Z,101062.88
2022-10-25T18:50:29.432Z,101054.09
2022-10-25T18:53:00.650Z,101050.97
2022-10-25T18:55:56.386Z,101041.06
2022-10-25T18:58:27.455Z,101046.41
2022-10-25T19:00:58.263Z,101039.75
2022-10-25T19:03:29.160Z,101033.09
2022-10-25T19:06:00.142Z,101034.72
2022-10-25T19:08:30.946Z,101030.00
2022-10-25T19:11:05.404Z,101028.69
2022-10-25T19:13:37.390Z,101027.56
2022-10-25T19:16:09.593Z,101023.00
2022-10-25T19:18:40.802Z,101028.41
2022-10-25T19:21:29.740Z,101024.81
2022-10-25T19:24:00.581Z,101020.09
2022-10-25T19:26:31.419Z,101010.97
2022-10-25T19:29:03.864Z,101020.56
2022-10-25T19:31:34.792Z,101008.22
2022-10-25T19:34:06.092Z,101010.19
2022-10-25T19:36:54.866Z,101009.06
2022-10-25T19:39:25.722Z,101000.56
2022-10-25T19:41:56.567Z,101005.44
2022-10-25T19:44:27.463Z,101002.69
2022-10-25T19:47:00.266Z,100997.50
2022-10-25T19:49:31.223Z,101001.06
2022-10-25T19:52:02.081Z,100989.50
2022-10-25T19:54:32.929Z,100986.44
2022-10-25T19:57:04.908Z,100976.50
2022-10-25T19:59:36.599Z,100978.44
2022-10-25T20:02:07.612Z,100978.44
2022-10-25T20:04:38.837Z,100976.50
2022-10-25T20:07:09.898Z,100974.53
2022-10-25T20:09:40.822Z,100977.81
2022-10-25T20:12:11.825Z,100982.34
2022-10-25T20:14:42.932Z,100971.28
2022-10-25T20:17:15.200Z,100979.28
2022-10-25T20:19:45.982Z,100976.81
2022-10-25T20:22:16.924Z,100980.72
2022-10-25T20:24:47.700Z,100979.59
2022-10-25T20:27:18.484Z,100977.94
2022-10-25T20:29:49.479Z,100974.88
2022-10-25T20:32:20.469Z,100977.94
2022-10-25T20:34:51.429Z,100983.81
2022-10-25T20:37:22.382Z,100985.78
2022-10-25T20:39:53.245Z,100988.22
2022-10-25T20:42:24.313Z,100977.50
2022-10-25T20:44:55.499Z,100983.00
2022-10-25T20:47:26.053Z,100987.38
2022-10-25T20:49:56.823Z,100985.44
2022-10-25T20:52:27.773Z,100983.00
2022-10-25T20:54:58.653Z,100992.09
2022-10-25T20:57:29.622Z,100987.72
2022-10-25T21:00:00.495Z,100994.06
2022-10-25T21:02:31.436Z,101001.03
2022-10-25T21:05:02.268Z,101005.75
2022-10-25T21:07:34.435Z,101008.03
2022-10-25T21:10:05.207Z,101003.97
2022-10-25T21:12:36.256Z,101010.47
2022-10-25T21:15:11.002Z,100992.25
2022-10-25T21:17:43.083Z,101006.72
2022-10-25T21:20:14.235Z,101008.81
2022-10-25T21:22:45.202Z,101009.66
2022-10-25T21:25:16.149Z,101014.84
2022-10-25T21:27:47.518Z,101014.06
2022-10-25T21:30:17.967Z,101011.28
2022-10-25T21:32:48.866Z,101008.03
2022-10-25T21:35:20.540Z,101009.66
2022-10-25T21:38:09.063Z,101012.72
2022-10-25T21:40:39.970Z,101009.16
2022-10-25T21:43:10.922Z,101012.91
2022-10-25T21:45:44.823Z,101008.03
2022-10-25T21:48:15.642Z,101009.97
2022-10-25T21:50:46.572Z,101008.66
2022-10-25T21:53:17.576Z,101007.53
2022-10-25T21:55:48.307Z,101009.97
2022-10-25T21:58:19.214Z,101011.44
2022-10-25T22:00:50.123Z,101012.56
2022-10-25T22:03:23.053Z,101015.31
2022-10-25T22:05:56.392Z,101014.31
2022-10-25T22:08:27.571Z,101008.16
2022-10-25T22:13:31.024Z,101017.78
2022-10-25T22:16:05.594Z,101010.44
2022-10-25T22:19:18.728Z,101016.47
2022-10-25T22:21:51.718Z,101015.81
2022-10-25T22:24:22.684Z,101016.63
2022-10-25T22:26:54.206Z,101017.28
2022-10-25T22:29:25.227Z,101026.88
2022-10-25T22:31:56.162Z,101028.84
2022-10-25T22:34:27.124Z,101029.97
2022-10-25T22:36:58.042Z,101025.56
2022-10-25T22:39:28.959Z,101023.63
2022-10-25T22:41:59.713Z,101019.06
2022-10-25T22:44:30.616Z,101022.16
2022-10-25T22:47:01.509Z,101027.00
2022-10-25T22:49:32.325Z,101025.06
2022-10-25T22:54:42.893Z,101032.88
2022-10-25T22:57:13.909Z,101034.97
2022-10-25T22:59:44.957Z,101032.03
2022-10-25T23:02:15.797Z,101033.75
2022-10-25T23:04:46.818Z,101024.81
2022-10-25T23:07:17.845Z,101031.47
2022-10-25T23:09:48.610Z,101034.84
2022-10-25T23:12:19.434Z,101034.34
2022-10-25T23:14:50.325Z,101037.00
2022-10-25T23:17:21.301Z,101036.66
2022-10-25T23:19:52.092Z,101042.84
2022-10-25T23:22:22.986Z,101039.28
2022-10-25T23:24:53.774Z,101034.91
2022-10-25T23:27:24.386Z,101042.84
2022-10-25T23:29:55.232Z,101045.13
2022-10-25T23:32:26.053Z,101049.50
2022-10-25T23:34:57.203Z,101056.50
2022-10-25T23:37:28.080Z,101061.22
2022-10-25T23:39:59.264Z,101058.94
2022-10-25T23:42:30.083Z,101072.44
2022-10-25T23:45:00.836Z,101071.63
2022-10-25T23:47:31.637Z,101074.69
2022-10-25T23:50:02.823Z,101080.41
2022-10-25T23:52:33.705Z,101084.28
2022-10-25T23:55:04.765Z,101093.53
2022-10-25T23:57:35.528Z,101090.78
